Portada
METAR-TAF:

METAR-TAF

Aeropuertos :

Aeropuerto de Salamanca

Salamanca, España

latitud: 40-57N, longitud: 005-30W, altitud: 793 m

Observación

El informe se hizo hace 37 minutos, a las 06:30 UTC
Viento 5 kt del este-noreste
Temperatura 9°C
Humedad 81%
Presión 1022 hPa
Visibilidad 10 km o más
sin nubes por debajo de 1500 m y sin presencia de cumulonimbus.

METAR: LESA 250630Z 07005KT CAVOK 09/06 Q1022

Hora: 09:07 (07:07 UTC)

Pronóstico

El informe se hizo hace 2 horas y 7 minutos, a las 05:00 UTC
Pronóstico válido del 25 a las 06 UTC al 26 a las 06 UTC
Viento 7 kt del este-noreste
Visibilidad 10 km o más
sin nubes por debajo de 1500 m y sin presencia de cumulonimbus.
Probabilidad 40% :
Temporalmente
del 25 a las 12 UTC al 25 a las 21 UTC
Viento 15 kt del este-noreste con ráfagas de 25 kt

TAF: LESA 250500Z 2506/2606 07007KT CAVOK TX22/2515Z TN07/2606Z PROB40 TEMPO 2512/2521 06015G25KT

Observaciones y pronósticos meteorológicos de más de 4000 aeropuertos (mensajes METAR y TAF).

Los puntos amarillos y rojos representan las estaciones disponibles.

Ponga el ratón en el punto deseado para ver el nombre de la estación.

Haga clic para ver las observaciones y los pronósticos meteorológicos.

Para cambiar el mapa : haga clic en los botones verdes con una cruz de color negro para hacer un zoom, en el botón verde con un guión para alejar o en las flechas verdes para mapas adyacentes.


METAR-TAF: